Marcel Hahn

Chefscout - St. Pauli
3 Apr 2027
Samstag
Verarbeitung

Persönlichkeit

Anpassungsfähigkeit (12) Ehrgeiz (10) Kontroverse (2) Loyalität (7) Druck (1) Professionalität (19) Fairness (6) Temperament (1)

Profil

Trainerstil Demokratisch
Lizenz Kontinentale A
Entschlossenheit 8
Menschenführung 5
Motivation 5
Disziplin 12
Arbeitszufriedenheit
100%
Ermüdung
0%
Rolle Chefscout
Gehalt 57.5K p/W
Vertrag 14.03.2030

Leistung

Verhalten Gut
Trainingseffektivität
43%
Spielerentwicklung
60%
Verletzungsprävention
50%
Taktische Umsetzung
55%

Letzte Ereignisse

Spieler begutachtet jetzt
Nahm an einer Scouting-Besprechung teil jetzt
Empfahl ein Transferziel jetzt
Nahm an einer Scouting-Besprechung teil jetzt
Nahm an einer Scouting-Besprechung teil jetzt
Spieler begutachtet jetzt
Spieler begutachtet jetzt
Spieler begutachtet 7T her

Aktuell beobachtet

215
Spieler Verein Status Fähigkeit Vertrauen Beobachtet Zuletzt beobachtet Letzte Stimme
Fashion Sakala Al-Fayha Aktiv 118 / 146 40% 7 02.04.2027 -
Efraín Álvarez Guadalajara Aktiv 131 / 132 40% 11 02.04.2027 -
Emil Riis Bristol City Aktiv 119 / 113 40% 3 02.04.2027 -
Hugo Cuypers Monterrey Aktiv 138 / 110 40% 10 01.04.2027 -
Hany Mukhtar Hamburger SV Aktiv 135 / 150 40% 6 01.04.2027 -
Moussa Dembélé Al-Ettifaq Aktiv 132 / 108 40% 3 01.04.2027 -
Munir Albacete Aktiv 131 / 120 40% 6 31.03.2027 -
Felipe Augusto Zenit Aktiv 134 / 122 40% 4 31.03.2027 -
Tamerlan Musaev CSKA Moscow Aktiv 125 / 130 40% 2 31.03.2027 -
Allahyar Sayyadmanesh Lech Aktiv 124 / 125 40% 2 30.03.2027 -
Tamble Monteiro Rio Ave Aktiv 127 / 117 40% 4 30.03.2027 -
Sheraldo Becker Mainz 05 Aktiv 128 / 131 40% 2 30.03.2027 -
Nicolás Ibáñez Cruz Azul Aktiv 143 / 148 40% 4 29.03.2027 -
Arthur Cabral Botafogo Aktiv 135 / 140 40% 2 28.03.2027 -
Achraf Bencharki Al Ahly Aktiv 134 / 120 40% 4 28.03.2027 -
Everton Bala Levski Aktiv 130 / 112 40% 2 28.03.2027 -
Paul Onuachu Trabzonspor Aktiv 136 / 129 40% 2 28.03.2027 -
Alexandr Sobolev Zenit Aktiv 135 / 141 40% 1 28.03.2027 -
Florián Monzón Atlas Aktiv 125 / 140 40% 6 26.03.2027 -
Karlan Grant West Bromwich Albion Aktiv 121 / 124 40% 2 26.03.2027 -
Ismael Díaz Leon Aktiv 139 / 134 40% 7 25.03.2027 -
Juninho Utrecht Aktiv 129 / 125 40% 4 25.03.2027 -
Yusuke Matsuo CSKA Moscow Aktiv 128 / 122 40% 2 25.03.2027 -
Lucas Höler SC Freiburg Aktiv 134 / 142 40% 3 24.03.2027 -
Rey Manaj Sivasspor Aktiv 128 / 140 40% 1 24.03.2027 -
Rocco Vata Watford Aktiv 127 / 125 40% 2 22.03.2027 -
Adrian Benedyczak Kasimpasa Aktiv 116 / 139 40% 4 22.03.2027 -
Luis Vázquez Birmingham Aktiv 133 / 123 40% 2 22.03.2027 -
Wesley Saïd RC Lens Aktiv 136 / 127 40% 1 22.03.2027 -
Vinícius Lopes Santa Clara Aktiv 119 / 114 40% 4 21.03.2027 -
Giorgos Giakoumakis Al Ain Aktiv 135 / 143 40% 2 21.03.2027 -
Brayan Gil Baltika Aktiv 117 / 124 40% 1 21.03.2027 -
Maurits Kjærgaard Red Bull Salzburg Aktiv 134 / 135 40% 8 20.03.2027 -
Diber Cambindo Leon Aktiv 130 / 132 40% 4 20.03.2027 -
Mehdi Ghayedi Al Nasr Aktiv 135 / 123 40% 5 17.03.2027 -
Shuto Machino Borussia Mönchengladbach Aktiv 124 / 124 40% 1 17.03.2027 -
Carlos Vinícius Grêmio Aktiv 140 / 122 40% 4 16.03.2027 -
José Arnáiz Granada Aktiv 136 / 130 40% 8 16.03.2027 -
Rumarn Burrell Queens Park Rangers Aktiv 125 / 121 40% 1 16.03.2027 -
Juanmi Latasa Valladolid Aktiv 125 / 122 40% 1 14.03.2027 -
Mousa Meunier KV Oostende Aktiv 129 / 133 40% 10 11.03.2027 -
Carlos Fernández Oviedo Aktiv 123 / 115 40% 3 11.03.2027 -
Marco Pineda VfB Stuttgart Aktiv 140 / 127 40% 5 10.03.2027 -
Dani Raba Valencia Aktiv 141 / 141 40% 1 10.03.2027 -
Haris Tabaković Red Bull Salzburg Aktiv 141 / 127 40% 3 06.03.2027 -
Nikolay Komlichenko Lokomotiv Moscow Aktiv 127 / 128 40% 2 06.03.2027 -
Ramón Mierez Al Nasr Aktiv 121 / 136 40% 1 06.03.2027 -
Álex Forés Burgos Aktiv 131 / 137 40% 1 05.03.2027 -
Jhojan Julio Queretaro Aktiv 113 / 135 40% 3 03.03.2027 -
Diego Rossi Monterrey Aktiv 130 / 134 40% 2 03.03.2027 -
Kwadwo Duah Ludogorets Aktiv 129 / 123 40% 1 03.03.2027 -
Luka Jović AEK Aktiv 145 / 149 40% 3 27.02.2027 -
Chris Ramos Botafogo Aktiv 124 / 109 40% 3 26.02.2027 -
Eliás Montiel Pachuca Aktiv 133 / 150 40% 4 26.02.2027 -
Ondřej Lingr Korona Aktiv 119 / 118 40% 2 26.02.2027 -
Federico Valentini Forli Aktiv 90 / 87 40% 1 26.02.2027 -
Bahmed Deuff Olympique de Marseille Aktiv 114 / 111 40% 1 26.02.2027 -
Axel Tape Bayer Leverkusen Aktiv 120 / 116 40% 5 24.02.2027 -
Bradley de Jesus Tondela Aktiv 96 / 102 40% 1 24.02.2027 -
Khalfan Nader Al Shaab Aktiv 96 / 106 40% 1 24.02.2027 -
Carlton Morris Derby County Aktiv 124 / 116 40% 2 22.02.2027 -
Erik Prekop Gornik Zabrze Aktiv 132 / 134 40% 1 22.02.2027 -
Ousmane Camara Castellón Aktiv 122 / 135 40% 1 22.02.2027 -
Chuki Werder Bremen Aktiv 115 / 120 40% 1 20.02.2027 -
Théo Hansen Hobro Aktiv 98 / 82 40% 2 16.02.2027 -
Alen Korošec ND Gorica Aktiv 102 / 95 40% 1 16.02.2027 -
Sabil Hansen Randers Aktiv 99 / 107 40% 1 16.02.2027 -
Ludovic Ajorque Stade Brestois Aktiv 141 / 142 40% 1 16.02.2027 -
Arthur Gomes Dinamo Moscow Aktiv 133 / 110 40% 1 14.02.2027 -
Ozziel Herrera Tigres Aktiv 135 / 125 40% 2 11.02.2027 -
Jon Bautista Eibar Aktiv 137 / 140 40% 2 09.02.2027 -
Joaquin Seys Club Brugge Abgelehnt 124 / 123 40% 3 08.02.2027 Ablehnen
Riyad Idrissi Cagliari Aktiv 117 / 120 40% 2 08.02.2027 -
Igor Serrote Al Jazira Aktiv 121 / 102 40% 1 08.02.2027 -
Rodrigo Aguirre Tigres Aktiv 122 / 111 40% 2 05.02.2027 -
Johannes Eggestein Austria Wien Aktiv 128 / 113 40% 6 04.02.2027 -
Nardin Mulahusejnović Vojvodina Aktiv 124 / 127 40% 1 04.02.2027 -
Iqraam Rayners Mamelodi Sundowns Aktiv 124 / 111 40% 4 02.02.2027 -
Soufiane Rahimi Al Ain Abgelehnt 127 / 127 40% 5 01.02.2027 Ablehnen
Simphiwe Selepe Orlando Pirates Aktiv 122 / 109 40% 4 29.01.2027 -
Surprise Manthosi Polokwane City Aktiv 103 / 89 40% 2 29.01.2027 -
Ezechiel Banzuzi RB Leipzig Aktiv 136 / 149 40% 2 29.01.2027 Mehr Infos nötig
Obed Vargas Atlético Madrid Aktiv 117 / 133 40% 2 28.01.2027 -
Martim Cunha Porto Aktiv 102 / 106 40% 1 28.01.2027 -
Elijah Dijkstra Feyenoord Aktiv 125 / 122 40% 3 27.01.2027 -
Elie N'Gatta Sochaux Aktiv 97 / 99 40% 1 27.01.2027 -
Matthew Litherland Blackburn Rovers Aktiv 105 / 115 40% 1 26.01.2027 -
Keita Kosugi Eintracht Frankfurt Aktiv 121 / 145 40% 4 25.01.2027 -
Jon Garro Real Sociedad Aktiv 93 / 83 40% 1 25.01.2027 -
Lucas Agazzi Defensor Sporting Verhandlung 117 / 131 40% 2 21.01.2027 -
Chris Rigg Sunderland Aktiv 134 / 128 40% 2 20.01.2027 -
Jakub Jendryka Ruch Aktiv 80 / 91 40% 1 20.01.2027 -
Jair Nottingham Forest Aktiv 123 / 143 40% 2 19.01.2027 -
Breno Bidon Corinthians Aktiv 120 / 136 40% 2 19.01.2027 -
Alexander Røssing-Lelesiit Hamburger SV Aktiv 104 / 136 69% 1 11.01.2027 Befürworten
Fiete Arp OB Aktiv 127 / 126 40% 1 31.12.2026 -
Talisca Fenerbahce Aktiv 139 / 120 40% 2 30.12.2026 -
Samuel Essende Young Boys Aktiv 131 / 130 40% 6 28.12.2026 -
Ayoze Pérez Villarreal Aktiv 158 / 151 40% 2 28.12.2026 Mehr Infos nötig
Michaël Frey Grasshopper Aktiv 122 / 127 40% 7 27.12.2026 -
Ivan Cavaleiro Zurich Aktiv 124 / 105 40% 6 26.12.2026 -
Jonathan Calleri Sport Recife Aktiv 129 / 150 40% 1 26.12.2026 -
Andrej Kramarić TSG Hoffenheim Verloren 138 / 158 40% 4 25.12.2026 -
Maldini Kacurri Grimsby Town Aktiv 85 / 108 40% 1 25.12.2026 -
Santiago Sosa Yung Defensa y Justicia Aktiv 125 / 134 40% 1 25.12.2026 Mehr Infos nötig
Leandro Martins Benfica Aktiv 92 / 88 40% 1 24.12.2026 -
Camilo Rey Domenech Boca Juniors Aktiv 111 / 128 40% 1 24.12.2026 -
João Teixeira Porto Aktiv 104 / 124 40% 1 24.12.2026 -
Ivan Shilenok Zenit Aktiv 88 / 91 40% 2 23.12.2026 -
Tiago Freitas Benfica Aktiv 112 / 128 40% 2 23.12.2026 -
Matteo di Giusto Luzern Aktiv 124 / 137 40% 4 21.12.2026 -
Mohamed Salah Trabzonspor Aktiv 191 / 162 40% 6 20.12.2026 Beobachten
Yorbe Vertessen Red Bull Salzburg Aktiv 128 / 124 40% 3 20.12.2026 -
Cemran Dansin Orlando Pirates Aktiv 107 / 106 40% 1 20.12.2026 -
João Muniz Sporting CP Aktiv 118 / 110 40% 1 20.12.2026 -
Peter Shalulile Mamelodi Sundowns Aktiv 118 / 118 40% 8 18.12.2026 -
Ricardo Marín Guadalajara Aktiv 116 / 130 40% 1 18.12.2026 -
Juan-José Perea Zurich Aktiv 120 / 132 40% 3 15.12.2026 -
Ante Budimir Osasuna Verloren 142 / 156 40% 3 15.12.2026 -
Juanmi Getafe Verloren 132 / 122 40% 1 15.12.2026 -
Ángel Sepúlveda Guadalajara Aktiv 116 / 121 40% 3 14.12.2026 -
Sadio Mané Al-Nassr Verloren 143 / 158 40% 2 14.12.2026 -
Raúl Jiménez Wolverhampton Verloren 142 / 139 40% 1 14.12.2026 -
Josias Lukembila Sion Aktiv 123 / 115 40% 8 12.12.2026 -
Ignacio Perruzzi San Lorenzo Aktiv 122 / 136 40% 1 12.12.2026 -
Óscar Plano Leganés Aktiv 125 / 127 40% 4 11.12.2026 -
Andrin Hunziker St. Gallen Aktiv 118 / 112 40% 2 11.12.2026 -
Antoine Griezmann Orlando City Verloren 143 / 158 40% 8 07.12.2026 Beobachten
Marius Bülter Köln Aktiv 127 / 122 40% 1 07.12.2026 -
Julian von Moos Grasshopper Aktiv 115 / 112 40% 6 05.12.2026 -
Memphis Depay Corinthians Aktiv 146 / 158 40% 3 04.12.2026 -
José Pachuca Puebla Aktiv 110 / 128 40% 1 30.11.2026 -
Borja Iglesias Celta Aktiv 134 / 129 40% 1 30.11.2026 -
Henry Martín Club America Aktiv 135 / 128 40% 3 29.11.2026 -
Brayan León Mamelodi Sundowns Aktiv 117 / 120 40% 2 25.11.2026 -
Ilyas Chouaref Sion Aktiv 114 / 133 40% 2 24.11.2026 -
Kevin Behrens Lugano Aktiv 126 / 130 40% 6 22.11.2026 -
Petter Nosa Dahl Rapid Wien Aktiv 114 / 128 40% 3 22.11.2026 -
Philippe Keny Zurich Aktiv 114 / 116 40% 3 20.11.2026 -
Joël Monteiro Young Boys Aktiv 117 / 107 40% 5 18.11.2026 -
Enzo Cardozo Almirante Brown Aktiv 101 / 111 40% 1 18.11.2026 -
Kyriani Sabbe Club Brugge Aktiv 118 / 116 40% 1 18.11.2026 -
Luca Orellano Monterrey Aktiv 140 / 140 40% 1 13.11.2026 -
Romelu Lukaku Fenerbahce Aktiv 172 / 155 40% 3 11.11.2026 -
Albian Ajeti Basel Aktiv 119 / 123 40% 3 09.11.2026 -
Leonardo Castro Millonarios Aktiv 125 / 125 40% 2 04.11.2026 -
Godwin Oham Warri Wolves Aktiv 92 / 113 40% 1 04.11.2026 -
Stuart Hawkins Seattle Sounders Aktiv 101 / 90 40% 1 02.11.2026 -
Martín Pino Antalyaspor Aktiv 123 / 132 40% 1 01.11.2026 -
Alfredo Morelos Atletico Nacional Aktiv 135 / 120 40% 2 31.10.2026 -
Exequiel Zeballos Boca Juniors Aktiv 122 / 148 40% 2 29.10.2026 -
Nacer Tielemans Mouscron Aktiv 132 / 137 40% 1 28.10.2026 -
Cesar Corona Veracruz Aktiv 129 / 119 40% 3 25.10.2026 -
Sergio Quintero La Equidad Aktiv 125 / 154 40% 2 24.10.2026 -
Jáder Obrian Santa Fe Aktiv 118 / 106 40% 2 24.10.2026 -
Andrey Estupiñán Millonarios Aktiv 110 / 128 40% 2 24.10.2026 -
Ángel Correa River Plate Aktiv 142 / 150 40% 1 20.10.2026 -
Adrian Grbić Luzern Aktiv 113 / 112 40% 2 19.10.2026 -
Tadeo Allende Inter Miami CF Aktiv 122 / 119 40% 2 18.10.2026 -
Mathias De Amorim Famalicao Aktiv 133 / 127 40% 1 07.10.2026 -
Furkan Demir Borussia Mönchengladbach Aktiv 118 / 121 40% 1 07.10.2026 -
Alan Velasco Boca Juniors Aktiv 139 / 127 40% 1 05.10.2026 -
Emiliano Rigoni Belgrano Aktiv 125 / 128 40% 1 04.10.2026 -
Denis Bouanga Los Angeles Football Club Aktiv 136 / 116 40% 2 03.10.2026 -
Jefry Zapata Once Caldas Aktiv 116 / 97 40% 2 02.10.2026 -
Paulinho Toluca Aktiv 131 / 126 40% 1 02.10.2026 -
Dániel Gazdag Columbus Crew Aktiv 121 / 117 40% 2 01.10.2026 -
Wessam Abou Ali Columbus Crew Aktiv 134 / 116 40% 3 30.09.2026 -
Jorge Obregón Deportivo Pasto Aktiv 106 / 96 40% 1 28.09.2026 -
Leonardo Campana New England Revolution Aktiv 113 / 124 40% 1 24.09.2026 -
Carles Gil New England Revolution Aktiv 133 / 143 40% 1 22.09.2026 -
Rilind Nivokazi Sion Aktiv 115 / 120 40% 1 22.09.2026 -
Martin Braithwaite Grêmio Aktiv 134 / 121 40% 1 21.09.2026 -
Edwuin Cetré Estudiantes Aktiv 124 / 105 40% 1 20.09.2026 -
Guilherme Houston Dynamo Aktiv 115 / 136 40% 1 19.09.2026 -
Michy Fellaini KV Oostende Aktiv 140 / 128 40% 1 18.09.2026 -
Yoshan Valois Lanús Aktiv 123 / 127 40% 1 17.09.2026 -
Ignacio Russo Tigre Aktiv 120 / 142 40% 1 16.09.2026 -
Alexander Díaz Deportivo Riestra Aktiv 118 / 126 40% 2 13.09.2026 -
Kévin Denkey FC Cincinnati Aktiv 118 / 145 40% 1 12.09.2026 -
Robin Lod Chicago Fire Aktiv 125 / 112 40% 1 12.09.2026 -
Juan Martín Lucero Universidad de Chile Aktiv 136 / 138 40% 1 10.09.2026 -
Manfred Ugalde Spartak Moscow Aktiv 129 / 123 40% 1 10.09.2026 -
Agustín Seyral Sarmiento Aktiv 104 / 121 40% 1 08.09.2026 -
James Debayo Hull City Aktiv 98 / 92 40% 1 08.09.2026 -
Marc Bombardó Andorra Aktiv 106 / 109 40% 1 07.09.2026 -
Benjamín Ilama Uruguay Montevideo Aktiv 90 / 94 40% 1 07.09.2026 -
Milan Roganović Partizan Aktiv 116 / 123 40% 1 07.09.2026 -
Jon Karrikaburu Burgos Aktiv 122 / 133 40% 1 03.09.2026 -
Tomás Chancalay Minnesota United FC Aktiv 118 / 122 40% 1 03.09.2026 -
Santiago Solari Racing Club Aktiv 123 / 146 40% 1 27.08.2026 -
Tony Strata Vitoria Guimaraes Aktiv 124 / 119 40% 1 27.08.2026 -
Arthur Avom Ebong FC Lorient Aktiv 135 / 121 40% 1 27.08.2026 -
Brian White Vancouver Whitecaps Aktiv 130 / 130 40% 1 24.08.2026 -
Pedro Dacrema Independiente Rivadavia Aktiv 92 / 94 40% 1 24.08.2026 -
Marko Raguž Admira Wacker Aktiv 114 / 104 40% 1 22.08.2026 -
Giacomo Vrioni Wolfsberger AC Aktiv 112 / 108 40% 3 21.08.2026 -
Darian Maleš Young Boys Aktiv 122 / 130 40% 2 21.08.2026 -
Damienus Reverson Zurich Aktiv 115 / 101 40% 1 18.08.2026 -
Michael Barrios Once Caldas Aktiv 122 / 126 40% 1 17.08.2026 -
Diego Valdés Vélez Aktiv 126 / 125 40% 1 17.08.2026 -
Claudy M'Buyi Rapid Wien Aktiv 121 / 109 40% 1 14.08.2026 -
Ousmane Diawara Altach Aktiv 109 / 103 40% 1 14.08.2026 -
Ibrahim Salah Basel Aktiv 116 / 121 40% 1 13.08.2026 -
Kelvin Boateng Austria Wien Aktiv 108 / 97 40% 1 13.08.2026 -
Alexis Cuello San Lorenzo Aktiv 120 / 128 40% 1 12.08.2026 -
Sota Kitano Red Bull Salzburg Aktiv 120 / 139 40% 1 11.08.2026 -
Umeh Emmanuel Zurich Aktiv 104 / 111 40% 1 11.08.2026 -
Théo Berdayes Sion Aktiv 105 / 98 40% 1 11.08.2026 -
Markus Pink Wolfsberger AC Aktiv 123 / 126 40% 1 09.08.2026 -
Michael Gregoritsch FC Augsburg Aktiv 125 / 114 40% 1 06.08.2026 -
Ayo Akinola Vaduz Aktiv 107 / 95 40% 1 04.08.2026 -
Rafael Santos Borré River Plate Aktiv 130 / 133 40% 1 04.08.2026 -
Seedy Jatta Sturm Graz Aktiv 117 / 135 40% 1 01.08.2026 -
Josef Martínez Columbus Crew Aktiv 130 / 127 40% 1 01.08.2026 -